Time;durP1;ratioP1;P1;durP2;ratioP2;P2;SDS_P1;SDS_P2;PMS_P1;PMS_P2;Temp;Humidity;BMP_temperature;BMP_pressure;BME280_temperature;BME280_humidity;BME280_pressure;Samples;Min_cycle;Max_cycle;Signal;HPM_P1;HPM_P2
2021/03/18 00:00:57;;;;;;;10.45;3.80;;;;;;;6.00;59.74;102725.69;4873220;28;122914;-68
2021/03/18 00:03:28;;;;;;;7.25;3.67;;;;;;;5.94;59.49;102712.50;4873976;28;114243;-68
2021/03/18 00:05:55;;;;;;;10.93;3.90;;;;;;;5.92;59.97;102719.50;4869169;28;113868;-68
2021/03/18 00:08:23;;;;;;;11.35;3.60;;;;;;;5.89;59.92;102711.59;4872514;28;124842;-68
2021/03/18 00:10:51;;;;;;;7.97;3.47;;;;;;;5.88;59.83;102719.47;4874855;28;122852;-68
2021/03/18 00:13:20;;;;;;;8.98;3.63;;;;;;;5.86;59.57;102714.22;4862834;28;113492;-68
2021/03/18 00:15:46;;;;;;;6.75;3.47;;;;;;;5.82;59.60;102709.78;4874834;28;114040;-68
2021/03/18 00:18:16;;;;;;;7.53;3.63;;;;;;;5.81;59.84;102708.06;4874662;28;122851;-68
2021/03/18 00:20:44;;;;;;;10.48;3.47;;;;;;;5.79;59.66;102717.69;4859463;28;122467;-68
2021/03/18 00:23:11;;;;;;;9.15;3.55;;;;;;;5.75;59.85;102718.53;4859993;28;114454;-68
2021/03/18 00:25:38;;;;;;;11.32;3.72;;;;;;;5.71;59.70;102716.75;4876027;28;114743;-68
2021/03/18 00:28:05;;;;;;;8.98;3.50;;;;;;;5.69;59.92;102713.22;4874202;28;124005;-68
2021/03/18 00:30:32;;;;;;;11.35;3.35;;;;;;;5.67;59.83;102713.25;4872418;28;123835;-68
2021/03/18 00:32:59;;;;;;;8.68;3.35;;;;;;;5.64;60.05;102706.19;4865362;28;114393;-68
2021/03/18 00:35:28;;;;;;;8.15;2.85;;;;;;;5.65;59.96;102705.34;4868776;28;113791;-68
2021/03/18 00:37:56;;;;;;;9.13;3.45;;;;;;;5.64;59.75;102700.06;4876677;28;125858;-68
2021/03/18 00:40:33;;;;;;;11.30;3.13;;;;;;;5.63;59.86;102699.19;4873076;28;124826;-68
2021/03/18 00:43:02;;;;;;;8.75;3.28;;;;;;;5.64;59.96;102700.94;4871662;28;114102;-68
2021/03/18 00:45:32;;;;;;;9.70;3.00;;;;;;;5.66;60.10;102708.84;4871961;28;113838;-68
2021/03/18 00:48:00;;;;;;;8.85;3.22;;;;;;;5.65;59.80;102707.97;4871201;28;123439;-68
2021/03/18 00:50:35;;;;;;;10.95;3.20;;;;;;;5.65;59.91;102713.22;4871745;28;124157;-68
2021/03/18 00:53:03;;;;;;;13.38;3.67;;;;;;;5.65;59.93;102710.59;4872857;28;113736;-68
2021/03/18 00:55:29;;;;;;;9.63;3.20;;;;;;;5.63;59.50;102709.72;4856791;28;113592;-68
2021/03/18 00:57:56;;;;;;;9.95;3.20;;;;;;;5.62;59.87;102707.94;4876465;28;124038;-69
2021/03/18 01:00:30;;;;;;;9.27;2.90;;;;;;;5.60;59.51;102704.44;4874927;28;123192;-68
2021/03/18 01:02:57;;;;;;;9.68;3.05;;;;;;;5.59;59.62;102705.28;4874780;28;114281;-68
2021/03/18 01:05:33;;;;;;;10.68;3.45;;;;;;;5.59;59.75;102707.03;4871681;28;113732;-68
2021/03/18 01:08:00;;;;;;;8.15;2.80;;;;;;;5.58;59.67;102706.19;4873107;28;124985;-68
2021/03/18 01:10:34;;;;;;;9.95;3.28;;;;;;;5.57;59.46;102714.91;4872940;28;124730;-69
2021/03/18 01:13:00;;;;;;;10.15;3.50;;;;;;;5.57;59.69;102714.91;4871797;28;115306;-68
2021/03/18 01:15:28;;;;;;;9.07;3.05;;;;;;;5.56;59.27;102715.81;4870776;28;114056;-68
2021/03/18 01:17:55;;;;;;;8.70;3.35;;;;;;;5.54;59.54;102719.28;4914608;23;124440;-74
2021/03/18 01:20:22;;;;;;;8.50;3.30;;;;;;;5.52;59.32;102721.91;4886611;28;123555;-75
2021/03/18 01:22:49;;;;;;;8.27;3.35;;;;;;;5.50;59.27;102728.91;4891467;28;114300;-74
2021/03/18 01:25:15;;;;;;;9.82;3.67;;;;;;;5.49;59.59;102727.13;4874938;28;113206;-74
2021/03/18 01:27:42;;;;;;;9.25;3.67;;;;;;;5.47;59.40;102734.13;4890157;28;123712;-74
2021/03/18 01:30:16;;;;;;;9.70;3.63;;;;;;;5.43;59.31;102727.09;4892938;28;123910;-74
2021/03/18 01:32:42;;;;;;;7.72;3.40;;;;;;;5.41;59.25;102728.84;4892423;28;113691;-74
2021/03/18 01:35:12;;;;;;;10.30;3.72;;;;;;;5.36;59.25;102725.31;4890741;28;113322;-75
2021/03/18 01:37:39;;;;;;;12.52;3.72;;;;;;;5.32;59.59;102728.78;4885856;28;124542;-74
2021/03/18 01:40:07;;;;;;;17.48;3.65;;;;;;;5.26;59.62;102725.22;4883783;28;123400;-74
2021/03/18 01:42:35;;;;;;;13.05;3.75;;;;;;;5.24;59.71;102729.59;4889267;28;114233;-74
2021/03/18 01:45:05;;;;;;;9.95;3.50;;;;;;;5.21;59.95;102726.94;4873516;28;113084;-74
2021/03/18 01:47:33;;;;;;;11.32;3.42;;;;;;;5.18;59.78;102720.78;4884791;28;123910;-74
2021/03/18 01:50:01;;;;;;;9.88;3.80;;;;;;;5.15;59.53;102726.91;4892802;28;124217;-74
2021/03/18 01:52:27;;;;;;;13.20;3.90;;;;;;;5.10;59.93;102718.09;4888396;28;114363;-74
2021/03/18 01:54:54;;;;;;;11.85;3.90;;;;;;;5.09;59.70;102718.97;4885483;28;113806;-74
2021/03/18 01:57:21;;;;;;;12.95;3.97;;;;;;;5.07;60.01;102713.72;4883747;28;123606;-75
2021/03/18 01:59:47;;;;;;;12.30;3.95;;;;;;;5.07;59.96;102712.84;4887504;28;123929;-74
2021/03/18 02:02:15;;;;;;;14.43;4.05;;;;;;;5.06;59.95;102700.56;4883701;28;115674;-74
2021/03/18 02:04:42;;;;;;;12.23;4.07;;;;;;;5.08;60.22;102693.56;4887781;28;115093;-74
2021/03/18 02:07:09;;;;;;;18.42;4.05;;;;;;;5.10;59.93;102690.97;4889509;28;124272;-74
2021/03/18 02:09:35;;;;;;;12.70;4.30;;;;;;;5.13;59.89;102696.25;4882311;28;123108;-74
2021/03/18 02:12:03;;;;;;;7.93;3.78;;;;;;;5.13;60.13;102697.13;4885611;28;113754;-74
2021/03/18 02:14:30;;;;;;;9.32;4.57;;;;;;;5.16;60.08;102702.41;4878728;28;113619;-74
2021/03/18 02:16:58;;;;;;;12.52;4.40;;;;;;;5.16;60.03;102686.66;4881281;28;124769;-74
2021/03/18 02:19:52;;;;;;;10.23;3.88;;;;;;;5.17;60.00;102688.38;4883386;28;123387;-74
2021/03/18 02:22:44;;;;;;;10.15;4.00;;;;;;;5.16;59.64;102676.13;4887399;28;114285;-74
2021/03/18 02:25:20;;;;;;;12.50;3.90;;;;;;;5.15;59.84;102669.13;4877105;28;114152;-74
2021/03/18 02:28:06;;;;;;;12.75;4.07;;;;;;;5.15;59.77;102674.38;4886556;28;124405;-74
2021/03/18 02:30:45;;;;;;;11.43;4.60;;;;;;;5.13;59.97;102678.72;4873218;28;124260;-74
2021/03/18 02:33:41;;;;;;;13.68;4.70;;;;;;;5.14;59.80;102683.13;4871396;28;113467;-75
2021/03/18 02:36:13;;;;;;;17.13;4.57;;;;;;;5.14;59.91;102683.13;4892367;28;113599;-74
2021/03/18 02:38:43;;;;;;;11.70;4.22;;;;;;;5.15;60.11;102682.25;4886186;28;124696;-75
2021/03/18 02:41:23;;;;;;;12.75;4.15;;;;;;;5.14;59.88;102683.13;4877016;28;123404;-74
2021/03/18 02:44:29;;;;;;;10.68;4.10;;;;;;;5.15;59.78;102678.75;4878325;28;113172;-74
2021/03/18 02:47:03;;;;;;;11.95;4.07;;;;;;;5.15;59.77;102663.00;4881027;28;113770;-74
2021/03/18 02:49:33;;;;;;;10.60;4.30;;;;;;;5.16;59.93;102669.97;4886609;28;123897;-74
2021/03/18 02:52:02;;;;;;;9.90;3.97;;;;;;;5.15;60.14;102658.59;4888236;28;122982;-74
2021/03/18 02:54:29;;;;;;;12.77;4.28;;;;;;;5.15;59.87;102653.34;4884646;28;115276;-74
2021/03/18 02:56:59;;;;;;;9.85;4.13;;;;;;;5.15;59.90;102653.34;4881692;28;114929;-74
2021/03/18 02:59:32;;;;;;;10.00;3.80;;;;;;;5.14;59.63;102641.09;4877752;28;122745;-74
2021/03/18 03:02:01;;;;;;;13.68;4.32;;;;;;;5.12;59.74;102631.44;4881727;28;123896;-74
2021/03/18 03:04:30;;;;;;;16.13;4.13;;;;;;;5.12;59.70;102650.69;4876214;28;112649;-74
2021/03/18 03:06:57;;;;;;;12.13;4.07;;;;;;;5.10;59.83;102644.56;4887201;28;114658;-75
2021/03/18 03:09:24;;;;;;;11.23;3.70;;;;;;;5.09;59.86;102642.81;4884045;28;124766;-74
2021/03/18 03:11:54;;;;;;;13.00;4.35;;;;;;;5.09;59.83;102657.69;4891424;28;123879;-74
2021/03/18 03:14:22;;;;;;;11.13;3.80;;;;;;;5.08;59.74;102662.06;4883323;28;115352;-74
2021/03/18 03:16:49;;;;;;;10.18;4.25;;;;;;;5.07;60.04;102665.56;4881560;28;114246;-74
2021/03/18 03:19:17;;;;;;;9.30;4.15;;;;;;;5.07;60.13;102655.94;4882193;28;124015;-74
2021/03/18 03:21:44;;;;;;;10.20;4.05;;;;;;;5.08;60.04;102654.19;4888544;28;123670;-75
2021/03/18 03:24:13;;;;;;;12.48;4.13;;;;;;;5.08;59.80;102651.56;4877593;28;114602;-74
2021/03/18 03:26:40;;;;;;;10.15;4.30;;;;;;;5.08;59.77;102662.06;4881783;28;113556;-74
2021/03/18 03:29:07;;;;;;;9.73;4.03;;;;;;;5.07;59.98;102662.94;4879086;28;124570;-74
2021/03/18 03:31:35;;;;;;;13.63;4.25;;;;;;;5.07;60.00;102665.56;4882028;28;124373;-74
2021/03/18 03:34:06;;;;;;;9.75;3.55;;;;;;;5.06;60.03;102659.41;4872755;28;113414;-74
2021/03/18 03:36:34;;;;;;;13.88;3.88;;;;;;;5.07;60.04;102666.44;4884661;28;113362;-75
2021/03/18 03:39:06;;;;;;;16.27;4.15;;;;;;;5.08;60.01;102667.31;4886424;28;123926;-74
2021/03/18 03:41:33;;;;;;;12.00;3.55;;;;;;;5.07;59.98;102660.31;4878357;28;123932;-74
2021/03/18 03:44:01;;;;;;;9.82;3.92;;;;;;;5.08;59.89;102656.81;4888486;28;115892;-74
2021/03/18 03:46:28;;;;;;;12.77;4.22;;;;;;;5.08;60.31;102662.06;4885418;28;117714;-75
2021/03/18 03:48:55;;;;;;;9.95;3.78;;;;;;;5.09;60.16;102663.81;4883438;28;123142;-74
2021/03/18 03:51:22;;;;;;;11.05;3.70;;;;;;;5.08;60.00;102664.69;4880279;28;123019;-74
2021/03/18 03:53:54;;;;;;;11.50;3.75;;;;;;;5.07;60.28;102665.56;4884127;28;113465;-75
2021/03/18 03:56:31;;;;;;;13.18;4.07;;;;;;;5.06;59.88;102669.03;4888329;28;113581;-75
2021/03/18 03:59:06;;;;;;;11.13;3.95;;;;;;;5.05;59.96;102669.94;4871668;28;123664;-74
2021/03/18 04:01:42;;;;;;;10.35;3.58;;;;;;;5.04;59.82;102665.53;4887712;28;124350;-74
2021/03/18 04:04:28;;;;;;;8.10;3.75;;;;;;;5.01;59.84;102660.25;4885252;28;114624;-74
2021/03/18 04:06:59;;;;;;;10.55;4.00;;;;;;;4.98;59.60;102655.00;4880572;28;114375;-75
2021/03/18 04:09:27;;;;;;;8.75;3.47;;;;;;;4.96;59.89;102648.84;4876713;28;123756;-75
2021/03/18 04:11:56;;;;;;;12.82;3.70;;;;;;;4.93;59.77;102646.19;4880194;28;123870;-74
2021/03/18 04:14:27;;;;;;;11.10;3.63;;;;;;;4.89;59.83;102645.28;4874899;28;113099;-74
2021/03/18 04:16:58;;;;;;;8.82;3.65;;;;;;;4.87;59.80;102647.91;4879400;28;113803;-74
2021/03/18 04:19:26;;;;;;;10.57;4.03;;;;;;;4.86;59.81;102635.66;4885796;28;124842;-74
2021/03/18 04:21:54;;;;;;;9.90;3.38;;;;;;;4.85;59.79;102633.00;4881125;28;124376;-74
2021/03/18 04:24:23;;;;;;;8.23;3.92;;;;;;;4.83;59.89;102630.38;4884783;28;112989;-74
2021/03/18 04:26:53;;;;;;;10.90;3.97;;;;;;;4.82;59.97;102636.50;4877807;28;113875;-74
2021/03/18 04:29:20;;;;;;;6.43;3.38;;;;;;;4.80;59.88;102624.22;4891651;28;124060;-75
2021/03/18 04:31:47;;;;;;;13.65;4.03;;;;;;;4.79;60.08;102617.22;4885217;28;124618;-74
2021/03/18 04:34:17;;;;;;;13.90;4.10;;;;;;;4.77;60.06;102625.09;4884360;28;115238;-74
2021/03/18 04:36:44;;;;;;;11.13;4.20;;;;;;;4.78;60.14;102625.94;4885663;28;115357;-74
2021/03/18 04:39:13;;;;;;;11.90;3.90;;;;;;;4.77;60.02;102622.44;4885643;28;124450;-75
2021/03/18 04:41:40;;;;;;;9.60;4.20;;;;;;;4.77;60.09;102619.81;4888579;28;123957;-74
2021/03/18 04:44:08;;;;;;;16.02;4.10;;;;;;;4.77;60.19;102625.09;4879555;28;114079;-75
2021/03/18 04:46:38;;;;;;;13.20;4.40;;;;;;;4.76;60.11;102618.06;4889669;28;113853;-74
2021/03/18 04:49:06;;;;;;;7.50;4.47;;;;;;;4.75;60.11;102610.19;4877547;28;123129;-75
2021/03/18 04:51:33;;;;;;;10.20;4.10;;;;;;;4.75;60.00;102603.19;4887644;28;123954;-74
2021/03/18 04:54:00;;;;;;;12.02;4.40;;;;;;;4.75;60.00;102595.31;4873412;28;113233;-74
2021/03/18 04:56:27;;;;;;;11.07;4.35;;;;;;;4.74;60.15;102604.03;4886994;28;114744;-74
2021/03/18 04:58:57;;;;;;;14.25;4.55;;;;;;;4.74;60.12;102604.03;4879930;28;124224;-75
2021/03/18 05:01:27;;;;;;;10.05;4.28;;;;;;;4.74;60.34;102609.28;4885335;28;123139;-74
2021/03/18 05:03:54;;;;;;;12.68;4.45;;;;;;;4.75;60.20;102613.69;4886735;28;113803;-74
2021/03/18 05:06:24;;;;;;;12.25;4.00;;;;;;;4.75;60.05;102611.06;4882882;28;112521;-74
2021/03/18 05:08:52;;;;;;;15.32;4.93;;;;;;;4.75;60.27;102616.31;4876283;28;124701;-74
2021/03/18 05:11:21;;;;;;;10.52;4.30;;;;;;;4.75;60.23;102605.81;4881807;28;123862;-74
2021/03/18 05:13:49;;;;;;;11.15;4.20;;;;;;;4.74;60.11;102604.03;4880319;28;113871;-75
2021/03/18 05:16:16;;;;;;;11.75;4.40;;;;;;;4.74;60.15;102598.78;4890625;28;114101;-74
2021/03/18 05:18:44;;;;;;;13.20;4.03;;;;;;;4.73;60.10;102597.06;4880674;28;123854;-74
2021/03/18 05:21:11;;;;;;;13.35;4.28;;;;;;;4.73;60.11;102602.31;4885831;28;123274;-74
2021/03/18 05:23:40;;;;;;;13.23;4.43;;;;;;;4.74;60.28;102598.78;4882553;28;115194;-74
2021/03/18 05:26:07;;;;;;;11.38;4.45;;;;;;;4.75;60.05;102600.56;4885313;28;114099;-74
2021/03/18 05:28:34;;;;;;;11.13;4.15;;;;;;;4.76;60.17;102597.06;4887745;28;123846;-74
2021/03/18 05:31:02;;;;;;;10.38;4.07;;;;;;;4.76;60.23;102586.56;4887352;28;123932;-74
2021/03/18 05:33:29;;;;;;;10.82;3.95;;;;;;;4.77;60.19;102577.84;4879484;28;114050;-74
2021/03/18 05:35:56;;;;;;;9.70;4.53;;;;;;;4.77;60.23;102585.72;4879756;28;114316;-74
2021/03/18 05:38:23;;;;;;;11.75;4.45;;;;;;;4.76;60.29;102589.19;4884518;28;123855;-74
2021/03/18 05:40:56;;;;;;;10.02;4.25;;;;;;;4.76;60.49;102586.56;4891545;28;123028;-74
2021/03/18 05:43:25;;;;;;;12.75;4.82;;;;;;;4.78;60.23;102581.31;4884515;28;114865;-75
2021/03/18 05:45:52;;;;;;;12.90;4.82;;;;;;;4.78;60.36;102573.44;4887706;28;112926;-74
2021/03/18 05:48:20;;;;;;;15.40;5.15;;;;;;;4.79;60.32;102573.47;4881842;28;124093;-74
2021/03/18 05:50:47;;;;;;;12.07;4.43;;;;;;;4.81;60.47;102573.50;4890459;28;123250;-74
2021/03/18 05:53:17;;;;;;;11.20;4.93;;;;;;;4.82;60.59;102570.88;4882228;28;114727;-74
2021/03/18 05:55:51;;;;;;;16.30;4.90;;;;;;;4.84;60.67;102563.88;4882184;28;115013;-74
2021/03/18 05:58:21;;;;;;;15.25;5.38;;;;;;;4.87;60.64;102563.00;4888985;28;123227;-74
2021/03/18 06:00:50;;;;;;;12.93;4.88;;;;;;;4.87;60.71;102558.63;4889390;28;124198;-74
2021/03/18 06:03:20;;;;;;;15.48;5.40;;;;;;;4.90;60.70;102556.91;4881434;28;114106;-74
2021/03/18 06:06:05;;;;;;;15.75;5.40;;;;;;;4.92;60.64;102560.44;4887861;28;113091;-74
2021/03/18 06:08:34;;;;;;;13.35;5.30;;;;;;;4.94;60.72;102554.31;4879437;28;124161;-74
2021/03/18 06:11:00;;;;;;;18.05;5.97;;;;;;;4.96;60.64;102556.97;4883689;28;123998;-73
2021/03/18 06:13:27;;;;;;;15.05;5.68;;;;;;;4.99;60.67;102562.22;4873357;28;115571;-74
2021/03/18 06:15:55;;;;;;;13.38;5.85;;;;;;;5.00;60.83;102554.34;4882508;28;114058;-74
2021/03/18 06:18:21;;;;;;;15.63;6.03;;;;;;;5.02;60.78;102556.97;4882173;28;123257;-74
2021/03/18 06:20:50;;;;;;;18.65;5.57;;;;;;;5.04;60.73;102555.25;4885319;28;124880;-74
2021/03/18 06:23:17;;;;;;;17.17;5.88;;;;;;;5.06;60.88;102550.88;4881855;28;113548;-74
2021/03/18 06:25:45;;;;;;;17.17;5.82;;;;;;;5.07;60.99;102545.63;4879037;28;114177;-74
2021/03/18 06:28:29;;;;;;;18.65;5.93;;;;;;;5.10;60.98;102536.88;4883570;28;124009;-74
2021/03/18 06:31:12;;;;;;;13.80;5.63;;;;;;;5.12;60.94;102537.75;4887994;28;123039;-74
2021/03/18 06:33:50;;;;;;;14.27;5.93;;;;;;;5.15;61.04;102537.78;4885361;28;114112;-74
2021/03/18 06:36:29;;;;;;;16.33;5.28;;;;;;;5.18;60.92;102532.56;4876644;28;114493;-74
2021/03/18 06:39:06;;;;;;;16.80;6.00;;;;;;;5.20;60.91;102522.94;4885126;28;124491;-73
2021/03/18 06:41:35;;;;;;;12.07;5.38;;;;;;;5.22;61.04;102529.06;4884401;28;124319;-74
2021/03/18 06:44:04;;;;;;;12.65;5.30;;;;;;;5.26;61.01;102527.34;4878713;28;114037;-73
2021/03/18 06:46:31;;;;;;;14.50;5.70;;;;;;;5.25;61.04;102534.34;4878836;28;113002;-74
2021/03/18 06:49:12;;;;;;;12.80;5.30;;;;;;;5.26;61.05;102530.84;4888460;28;123937;-74
2021/03/18 06:51:42;;;;;;;17.55;5.53;;;;;;;5.30;60.93;102530.88;4885794;28;124489;-73
2021/03/18 06:54:20;;;;;;;16.85;5.70;;;;;;;5.33;61.15;102530.84;4888996;28;114285;-74
2021/03/18 06:56:58;;;;;;;11.60;6.05;;;;;;;5.34;61.26;102527.38;4879161;28;113722;-74
2021/03/18 06:59:29;;;;;;;15.75;6.22;;;;;;;5.36;61.37;102525.63;4885866;28;123656;-74
2021/03/18 07:02:07;;;;;;;15.68;6.00;;;;;;;5.41;61.25;102529.16;4887472;28;123665;-74
2021/03/18 07:04:48;;;;;;;18.10;6.00;;;;;;;5.45;61.31;102530.91;4881749;28;115375;-74
2021/03/18 07:07:17;;;;;;;12.93;5.80;;;;;;;5.50;61.32;102525.66;4879376;28;114411;-74
2021/03/18 07:09:45;;;;;;;13.68;6.13;;;;;;;5.53;61.39;102523.94;4882069;28;124319;-74
2021/03/18 07:12:14;;;;;;;17.10;6.03;;;;;;;5.57;61.45;102525.69;4880597;28;122852;-74
2021/03/18 07:14:43;;;;;;;14.77;6.05;;;;;;;5.62;61.54;102513.44;4887406;28;114938;-74
2021/03/18 07:17:16;;;;;;;19.75;6.53;;;;;;;5.66;61.36;102515.19;4888297;28;114150;-75
2021/03/18 07:19:43;;;;;;;18.63;6.07;;;;;;;5.71;61.20;102511.69;4902460;23;123162;-68
2021/03/18 07:22:20;;;;;;;16.33;7.00;;;;;;;5.74;61.38;102512.59;4892410;28;121944;-68
2021/03/18 07:24:54;;;;;;;19.33;7.13;;;;;;;5.78;61.46;102508.22;4891182;28;113997;-68
2021/03/18 07:27:22;;;;;;;16.05;6.85;;;;;;;5.84;61.41;102497.72;4887460;28;114231;-69
2021/03/18 07:29:50;;;;;;;13.70;6.88;;;;;;;5.89;61.37;102501.22;4881571;28;124875;-69
2021/03/18 07:32:16;;;;;;;19.52;6.85;;;;;;;5.92;61.66;102498.59;4885987;28;123713;-69
2021/03/18 07:34:44;;;;;;;20.38;6.82;;;;;;;5.96;61.74;102500.38;4886982;28;115001;-68
2021/03/18 07:37:11;;;;;;;20.10;7.50;;;;;;;6.02;61.69;102503.00;4887015;28;113589;-69
2021/03/18 07:39:40;;;;;;;15.27;6.82;;;;;;;6.08;61.46;102507.41;4881832;28;125286;-68
2021/03/18 07:42:10;;;;;;;18.17;7.57;;;;;;;6.14;61.58;102501.25;4875774;28;124176;-68
2021/03/18 07:44:41;;;;;;;19.48;7.97;;;;;;;6.19;61.67;102515.31;4879247;28;113455;-68
2021/03/18 07:47:08;;;;;;;15.75;7.53;;;;;;;6.24;61.64;102524.09;4887019;28;114449;-69
2021/03/18 07:49:39;;;;;;;19.17;7.53;;;;;;;6.29;61.56;102522.34;4892332;28;124241;-69
2021/03/18 07:52:07;;;;;;;20.45;8.40;;;;;;;6.34;61.83;102515.28;4887981;28;124109;-68
2021/03/18 07:54:36;;;;;;;21.75;8.25;;;;;;;6.41;61.52;102522.31;4877508;28;114318;-69
2021/03/18 07:57:13;;;;;;;21.65;8.73;;;;;;;6.45;61.60;102511.78;4889453;28;114897;-68
2021/03/18 07:59:40;;;;;;;18.20;8.68;;;;;;;6.51;61.47;102510.00;4896442;28;122018;-68
2021/03/18 08:02:22;;;;;;;22.85;8.95;;;;;;;6.57;61.55;102509.13;4877417;28;123821;-69
2021/03/18 08:04:52;;;;;;;24.02;9.70;;;;;;;6.63;61.56;102510.00;4890946;28;113178;-68
2021/03/18 08:07:40;;;;;;;22.75;9.02;;;;;;;6.67;61.37;102518.78;4889902;28;113804;-69
2021/03/18 08:10:30;;;;;;;19.83;9.20;;;;;;;6.71;61.67;102515.25;4882566;28;124559;-69
2021/03/18 08:13:03;;;;;;;20.05;8.57;;;;;;;6.78;61.79;102517.00;4884600;28;124802;-69
2021/03/18 08:15:44;;;;;;;24.10;8.65;;;;;;;6.85;61.98;102524.88;4893309;28;114413;-69
2021/03/18 08:18:14;;;;;;;18.10;8.82;;;;;;;6.93;61.99;102516.09;4886396;28;113401;-69
2021/03/18 08:20:41;;;;;;;20.85;9.90;;;;;;;7.02;61.79;102515.16;4892380;28;122945;-69
2021/03/18 08:23:26;;;;;;;17.80;9.82;;;;;;;7.09;61.63;102526.59;4871300;28;122652;-69
2021/03/18 08:26:05;;;;;;;25.60;9.13;;;;;;;7.17;61.92;102525.66;4884351;28;113237;-69
2021/03/18 08:28:40;;;;;;;21.80;8.48;;;;;;;7.26;62.12;102518.59;4882809;28;114035;-68
2021/03/18 08:31:10;;;;;;;17.02;8.10;;;;;;;7.33;61.76;102525.63;4886265;28;124827;-69
2021/03/18 08:33:49;;;;;;;20.08;8.00;;;;;;;7.38;61.70;102529.09;4888146;28;123464;-69
2021/03/18 08:36:34;;;;;;;17.92;7.75;;;;;;;7.44;61.97;102526.44;4883850;28;114192;-67
2021/03/18 08:39:01;;;;;;;23.60;7.83;;;;;;;7.52;61.46;102527.25;4879849;28;113814;-67
2021/03/18 08:41:37;;;;;;;19.83;7.63;;;;;;;7.58;61.54;102531.63;4879279;28;124045;-69
2021/03/18 08:44:10;;;;;;;15.20;7.47;;;;;;;7.63;61.71;102535.13;4885680;28;124597;-68
2021/03/18 08:46:46;;;;;;;21.00;8.15;;;;;;;7.70;61.55;102538.59;4885736;28;115353;-69
2021/03/18 08:49:30;;;;;;;19.80;8.15;;;;;;;7.74;61.65;102529.78;4884663;28;114443;-68
2021/03/18 08:51:59;;;;;;;18.45;7.97;;;;;;;7.81;61.49;102534.13;4882036;28;124574;-68
2021/03/18 08:54:38;;;;;;;20.65;8.38;;;;;;;7.87;61.32;102534.06;4878976;28;124170;-68
2021/03/18 08:57:06;;;;;;;19.30;7.65;;;;;;;7.93;61.35;102534.06;4876273;28;114235;-68
2021/03/18 08:59:34;;;;;;;21.13;7.93;;;;;;;7.98;61.27;102532.25;4877614;28;113876;-67
2021/03/18 09:02:06;;;;;;;15.93;7.28;;;;;;;8.04;61.36;102525.19;4884911;28;124348;-68
2021/03/18 09:04:36;;;;;;;18.40;7.70;;;;;;;8.12;61.53;102523.38;4861565;28;123122;-69
2021/03/18 09:07:04;;;;;;;15.70;7.47;;;;;;;8.17;61.27;102518.91;4877937;28;114261;-68
2021/03/18 09:09:31;;;;;;;16.67;7.13;;;;;;;8.23;61.05;102525.91;4879465;28;114201;-69
2021/03/18 09:11:59;;;;;;;21.77;7.40;;;;;;;8.28;61.55;102519.72;4878056;28;123674;-69
2021/03/18 09:14:26;;;;;;;15.02;7.80;;;;;;;8.34;61.22;102524.06;4878501;28;124104;-69
2021/03/18 09:17:07;;;;;;;26.70;7.78;;;;;;;8.37;61.37;102514.34;4879020;28;115193;-69
2021/03/18 09:19:35;;;;;;;14.57;7.80;;;;;;;8.45;61.16;102516.09;4878401;28;113821;-69
2021/03/18 09:22:03;;;;;;;13.55;6.70;;;;;;;8.49;61.25;102512.53;4879253;28;123672;-69
2021/03/18 09:24:37;;;;;;;21.98;7.10;;;;;;;8.52;61.04;102510.72;4879427;28;124174;-69
2021/03/18 09:27:09;;;;;;;22.55;7.05;;;;;;;8.56;60.98;102508.94;4876487;28;114316;-69
2021/03/18 09:29:37;;;;;;;19.45;6.10;;;;;;;8.60;60.92;102510.66;4880044;28;113355;-69
2021/03/18 09:32:05;;;;;;;19.83;6.88;;;;;;;8.61;61.12;102507.13;4886483;28;124526;-71
2021/03/18 09:34:38;;;;;;;17.20;6.57;;;;;;;8.63;60.80;102505.34;4881738;28;123441;-69
2021/03/18 09:37:06;;;;;;;14.77;6.20;;;;;;;8.67;61.06;102501.78;4890374;28;115462;-69
2021/03/18 09:39:33;;;;;;;16.02;6.60;;;;;;;8.71;60.97;102500.84;4885057;28;115338;-69
2021/03/18 09:42:05;;;;;;;13.32;6.20;;;;;;;8.75;60.86;102499.91;4877296;28;124499;-69
2021/03/18 09:44:33;;;;;;;19.02;7.10;;;;;;;8.79;60.69;102492.84;4882544;28;123313;-69
2021/03/18 09:47:02;;;;;;;18.20;6.50;;;;;;;8.84;61.18;102498.09;4884936;28;113211;-69
2021/03/18 09:49:38;;;;;;;21.55;7.00;;;;;;;8.88;60.97;102489.22;4878450;28;113858;-69
2021/03/18 09:52:06;;;;;;;;;;;;;;;8.92;61.06;102496.22;4884672;28;123615;-69
2021/03/18 09:54:33;;;;;;;20.50;6.72;;;;;;;8.96;60.72;102490.00;4878317;28;123989;-69
2021/03/18 09:57:05;;;;;;;17.90;7.13;;;;;;;9.00;60.99;102494.34;4883495;28;114508;-69
2021/03/18 09:59:32;;;;;;;18.23;7.40;;;;;;;9.03;61.06;102483.75;4880794;28;113033;-69
2021/03/18 10:01:59;;;;;;;18.92;7.72;;;;;;;9.07;60.81;102485.47;4885167;28;123756;-69
2021/03/18 10:04:27;;;;;;;23.30;7.25;;;;;;;9.15;61.42;102483.63;4884635;28;123290;-69
2021/03/18 10:06:56;;;;;;;16.73;7.45;;;;;;;9.24;61.53;102473.81;4884386;28;114095;-69
2021/03/18 10:09:33;;;;;;;16.50;6.72;;;;;;;9.34;61.17;102478.06;4882706;28;114042;-69
2021/03/18 10:12:02;;;;;;;18.65;6.72;;;;;;;9.42;61.07;102465.63;4876512;28;124079;-69
2021/03/18 10:14:36;;;;;;;16.40;6.72;;;;;;;9.49;60.99;102462.00;4875180;28;124069;-69
2021/03/18 10:17:09;;;;;;;16.50;6.88;;;;;;;9.59;61.04;102467.13;4881926;28;114761;-70
2021/03/18 10:20:04;;;;;;;18.15;7.50;;;;;;;9.68;61.14;102464.38;4888295;28;114291;-68
2021/03/18 10:22:36;;;;;;;23.13;7.35;;;;;;;9.78;60.74;102451.91;4878792;28;122839;-69
2021/03/18 10:25:16;;;;;;;17.58;6.93;;;;;;;9.86;60.79;102444.69;4880356;28;124392;-70
2021/03/18 10:27:44;;;;;;;15.95;6.63;;;;;;;9.94;60.54;102438.38;4886437;28;115375;-69
2021/03/18 10:30:19;;;;;;;21.25;7.60;;;;;;;10.01;60.68;102432.97;4885579;28;114887;-69
2021/03/18 10:33:08;;;;;;;20.35;7.57;;;;;;;10.10;60.57;102432.81;4878330;28;124193;-69
2021/03/18 10:35:42;;;;;;;16.90;6.97;;;;;;;10.21;60.48;102425.56;4883384;28;122860;-68
2021/03/18 10:38:12;;;;;;;20.73;7.65;;;;;;;10.29;60.48;102428.94;4881688;28;114652;-68
2021/03/18 10:40:44;;;;;;;21.52;7.88;;;;;;;10.38;60.56;102408.50;4884766;28;113712;-68
2021/03/18 10:43:20;;;;;;;21.35;8.45;;;;;;;10.46;60.16;102419.84;4884150;28;123636;-68
2021/03/18 10:45:47;;;;;;;25.05;7.55;;;;;;;10.56;60.24;102416.09;4882762;28;123770;-68
2021/03/18 10:48:22;;;;;;;25.52;7.97;;;;;;;10.67;60.18;102419.41;4879511;28;113338;-70
2021/03/18 10:50:50;;;;;;;24.83;6.95;;;;;;;10.77;60.13;102413.94;4877509;28;114450;-68
2021/03/18 10:53:19;;;;;;;28.42;7.93;;;;;;;10.87;59.92;102415.50;4878780;28;124061;-68
2021/03/18 10:56:04;;;;;;;21.98;6.72;;;;;;;10.99;59.78;102412.56;4879626;28;124278;-68
2021/03/18 10:58:31;;;;;;;20.10;6.32;;;;;;;11.13;59.38;102406.09;4883684;28;114269;-68
2021/03/18 11:01:00;;;;;;;20.67;6.90;;;;;;;11.25;59.53;102406.69;4888897;28;114178;-68
2021/03/18 11:03:35;;;;;;;23.35;5.90;;;;;;;11.38;59.19;102401.97;4890834;28;123855;-68
2021/03/18 11:06:23;;;;;;;22.65;6.28;;;;;;;11.50;58.92;102406.97;4901429;28;123363;-68
2021/03/18 11:08:54;;;;;;;18.50;5.47;;;;;;;11.62;58.44;102404.94;4896275;28;113885;-68
2021/03/18 11:11:23;;;;;;;16.80;5.53;;;;;;;11.70;58.48;102397.69;4888904;28;114445;-69
2021/03/18 11:13:50;;;;;;;21.02;5.72;;;;;;;11.78;57.96;102395.69;4893855;28;123882;-69
2021/03/18 11:16:25;;;;;;;19.50;4.97;;;;;;;11.83;57.51;102393.81;4889235;28;124248;-69
2021/03/18 11:18:57;;;;;;;19.38;4.95;;;;;;;11.86;57.22;102396.38;4890241;28;116043;-68
2021/03/18 11:21:32;;;;;;;20.25;5.28;;;;;;;11.86;56.85;102393.72;4892798;28;114932;-68
2021/03/18 11:24:27;;;;;;;19.15;5.03;;;;;;;11.84;56.76;102395.53;4885712;28;123689;-69
2021/03/18 11:26:58;;;;;;;20.10;5.03;;;;;;;11.85;56.61;102385.81;4887712;28;124172;-69
2021/03/18 11:29:27;;;;;;;19.90;5.03;;;;;;;11.85;56.65;102386.69;4885228;28;114982;-69
2021/03/18 11:31:56;;;;;;;20.45;4.65;;;;;;;11.88;56.55;102385.72;4892010;28;114291;-69
2021/03/18 11:34:26;;;;;;;20.63;5.70;;;;;;;11.88;56.47;102391.91;4902894;28;124448;-69